sensor_id;sensor_type;location;lat;lon;timestamp;pressure;altitude;pressure_sealevel;temperature;humidity
76448;BME280;65284;51.040;13.722;2022-12-29T00:01:38;99327.03;;;9.01;61.50
76448;BME280;65284;51.040;13.722;2022-12-29T00:04:05;99319.41;;;9.06;61.20
76448;BME280;65284;51.040;13.722;2022-12-29T00:06:39;99323.53;;;9.09;61.26
76448;BME280;65284;51.040;13.722;2022-12-29T00:09:06;99311.13;;;9.18;61.10
76448;BME280;65284;51.040;13.722;2022-12-29T00:11:33;99325.66;;;9.22;61.05
76448;BME280;65284;51.040;13.722;2022-12-29T00:13:59;99312.91;;;9.25;60.89
76448;BME280;65284;51.040;13.722;2022-12-29T00:16:51;99327.97;;;9.25;60.68
76448;BME280;65284;51.040;13.722;2022-12-29T00:19:17;99316.34;;;9.34;60.46
76448;BME280;65284;51.040;13.722;2022-12-29T00:22:02;99311.13;;;9.18;61.37
76448;BME280;65284;51.040;13.722;2022-12-29T00:24:47;99319.53;;;9.29;60.72
76448;BME280;65284;51.040;13.722;2022-12-29T00:27:19;99295.50;;;9.31;60.19
76448;BME280;65284;51.040;13.722;2022-12-29T00:30:12;99296.66;;;9.28;61.07
76448;BME280;65284;51.040;13.722;2022-12-29T00:32:57;99285.25;;;9.28;61.00
76448;BME280;65284;51.040;13.722;2022-12-29T00:35:51;99288.56;;;9.22;61.35
76448;BME280;65284;51.040;13.722;2022-12-29T00:38:18;99285.91;;;9.22;61.52
76448;BME280;65284;51.040;13.722;2022-12-29T00:41:04;99292.22;;;9.21;61.67
76448;BME280;65284;51.040;13.722;2022-12-29T00:43:49;99302.00;;;9.20;61.68
76448;BME280;65284;51.040;13.722;2022-12-29T00:46:37;99293.88;;;9.14;61.88
76448;BME280;65284;51.040;13.722;2022-12-29T00:49:05;99287.75;;;9.13;61.90
76448;BME280;65284;51.040;13.722;2022-12-29T00:51:51;99275.53;;;9.12;62.28
76448;BME280;65284;51.040;13.722;2022-12-29T00:54:18;99287.28;;;9.09;62.87
76448;BME280;65284;51.040;13.722;2022-12-29T00:56:46;99283.63;;;9.10;63.60
76448;BME280;65284;51.040;13.722;2022-12-29T00:59:13;99276.34;;;9.13;64.09
76448;BME280;65284;51.040;13.722;2022-12-29T01:01:40;99267.38;;;9.14;64.73
76448;BME280;65284;51.040;13.722;2022-12-29T01:04:07;99266.09;;;9.09;65.02
76448;BME280;65284;51.040;13.722;2022-12-29T01:06:35;99276.00;;;9.16;65.57
76448;BME280;65284;51.040;13.722;2022-12-29T01:09:03;99272.41;;;9.00;66.37
76448;BME280;65284;51.040;13.722;2022-12-29T01:11:48;99270.72;;;9.07;66.63
76448;BME280;65284;51.040;13.722;2022-12-29T01:14:15;99267.09;;;9.08;67.13
76448;BME280;65284;51.040;13.722;2022-12-29T01:16:43;99272.75;;;8.97;67.73
76448;BME280;65284;51.040;13.722;2022-12-29T01:19:10;99276.69;;;9.01;67.64
76448;BME280;65284;51.040;13.722;2022-12-29T01:21:37;99280.03;;;8.95;67.76
76448;BME280;65284;51.040;13.722;2022-12-29T01:24:04;99272.41;;;8.92;68.18
76448;BME280;65284;51.040;13.722;2022-12-29T01:26:30;99270.44;;;8.94;68.54
76448;BME280;65284;51.040;13.722;2022-12-29T01:28:57;99269.75;;;8.92;68.12
76448;BME280;65284;51.040;13.722;2022-12-29T01:31:23;99265.81;;;8.96;67.79
76448;BME280;65284;51.040;13.722;2022-12-29T01:33:50;99267.31;;;8.91;68.35
76448;BME280;65284;51.040;13.722;2022-12-29T01:36:19;99264.47;;;8.92;68.02
76448;BME280;65284;51.040;13.722;2022-12-29T01:38:45;99263.47;;;9.01;67.24
76448;BME280;65284;51.040;13.722;2022-12-29T01:41:13;99266.09;;;9.09;67.04
76448;BME280;65284;51.040;13.722;2022-12-29T01:43:57;99281.31;;;9.16;67.01
76448;BME280;65284;51.040;13.722;2022-12-29T01:46:34;99259.44;;;9.22;66.66
76448;BME280;65284;51.040;13.722;2022-12-29T01:49:22;99262.88;;;9.30;66.64
76448;BME280;65284;51.040;13.722;2022-12-29T01:52:04;99257.72;;;9.37;66.14
76448;BME280;65284;51.040;13.722;2022-12-29T01:54:43;99259.44;;;9.22;67.06
76448;BME280;65284;51.040;13.722;2022-12-29T01:57:15;99261.41;;;9.20;67.38
76448;BME280;65284;51.040;13.722;2022-12-29T01:59:50;99256.97;;;9.20;67.26
76448;BME280;65284;51.040;13.722;2022-12-29T02:02:18;99256.28;;;9.26;67.76
76448;BME280;65284;51.040;13.722;2022-12-29T02:04:44;99242.84;;;9.28;67.31
76448;BME280;65284;51.040;13.722;2022-12-29T02:07:18;99237.06;;;9.24;67.21
76448;BME280;65284;51.040;13.722;2022-12-29T02:09:48;99198.72;;;9.43;66.98
76448;BME280;65284;51.040;13.722;2022-12-29T02:12:17;99208.03;;;9.39;67.19
76448;BME280;65284;51.040;13.722;2022-12-29T02:14:45;99213.66;;;9.36;66.97
76448;BME280;65284;51.040;13.722;2022-12-29T02:31:25;99223.00;;;9.55;66.52
76448;BME280;65284;51.040;13.722;2022-12-29T02:34:08;99227.16;;;9.57;66.31
76448;BME280;65284;51.040;13.722;2022-12-29T02:36:44;99218.22;;;9.59;66.59
76448;BME280;65284;51.040;13.722;2022-12-29T02:42:24;99214.31;;;9.69;65.77
76448;BME280;65284;51.040;13.722;2022-12-29T02:45:04;99198.88;;;9.73;65.79
76448;BME280;65284;51.040;13.722;2022-12-29T02:47:52;99207.84;;;9.72;65.72
76448;BME280;65284;51.040;13.722;2022-12-29T02:50:23;99211.16;;;9.74;65.78
76448;BME280;65284;51.040;13.722;2022-12-29T02:53:00;99174.97;;;9.81;65.53
76448;BME280;65284;51.040;13.722;2022-12-29T02:55:30;99202.50;;;9.80;65.56
76448;BME280;65284;51.040;13.722;2022-12-29T02:58:29;99196.84;;;9.83;65.16
76448;BME280;65284;51.040;13.722;2022-12-29T03:01:19;99206.38;;;9.92;64.71
76448;BME280;65284;51.040;13.722;2022-12-29T03:06:31;99199.38;;;9.99;64.67
76448;BME280;65284;51.040;13.722;2022-12-29T03:09:36;99201.44;;;9.89;64.98
76448;BME280;65284;51.040;13.722;2022-12-29T03:12:00;99190.44;;;10.00;64.80
76448;BME280;65284;51.040;13.722;2022-12-29T03:14:52;99190.78;;;9.97;64.65
76448;BME280;65284;51.040;13.722;2022-12-29T03:17:51;99191.25;;;10.01;64.69
76448;BME280;65284;51.040;13.722;2022-12-29T03:20:45;99194.06;;;9.99;64.73
76448;BME280;65284;51.040;13.722;2022-12-29T03:23:16;99195.78;;;9.92;64.59
76448;BME280;65284;51.040;13.722;2022-12-29T03:25:47;99184.94;;;10.02;64.56
76448;BME280;65284;51.040;13.722;2022-12-29T03:28:22;99185.47;;;9.97;64.51
76448;BME280;65284;51.040;13.722;2022-12-29T03:30:49;99182.28;;;10.02;64.76
76448;BME280;65284;51.040;13.722;2022-12-29T03:33:21;99176.38;;;10.15;64.31
76448;BME280;65284;51.040;13.722;2022-12-29T03:35:50;99179.19;;;10.13;64.27
76448;BME280;65284;51.040;13.722;2022-12-29T03:40:57;99172.13;;;10.29;63.37
76448;BME280;65284;51.040;13.722;2022-12-29T03:43:25;99175.31;;;10.24;63.67
76448;BME280;65284;51.040;13.722;2022-12-29T03:45:52;99165.00;;;10.29;63.34
76448;BME280;65284;51.040;13.722;2022-12-29T03:48:19;99162.47;;;10.36;62.99
76448;BME280;65284;51.040;13.722;2022-12-29T03:50:45;99162.56;;;10.42;63.14
76448;BME280;65284;51.040;13.722;2022-12-29T03:53:12;99152.84;;;10.35;63.53
76448;BME280;65284;51.040;13.722;2022-12-29T03:55:38;99162.94;;;10.39;63.09
76448;BME280;65284;51.040;13.722;2022-12-29T03:58:04;99164.56;;;10.40;63.37
76448;BME280;65284;51.040;13.722;2022-12-29T04:00:31;99158.09;;;10.58;62.69
76448;BME280;65284;51.040;13.722;2022-12-29T04:02:57;99158.16;;;10.50;63.15
76448;BME280;65284;51.040;13.722;2022-12-29T04:05:24;99143.78;;;10.44;63.13
76448;BME280;65284;51.040;13.722;2022-12-29T04:07:51;99137.41;;;10.38;63.48
76448;BME280;65284;51.040;13.722;2022-12-29T04:10:17;99150.56;;;10.46;63.46
76448;BME280;65284;51.040;13.722;2022-12-29T04:12:44;99133.81;;;10.46;63.62
76448;BME280;65284;51.040;13.722;2022-12-29T04:15:12;99148.75;;;10.47;63.53
76448;BME280;65284;51.040;13.722;2022-12-29T04:17:39;99150.84;;;10.52;63.65
76448;BME280;65284;51.040;13.722;2022-12-29T04:20:06;99145.19;;;10.55;63.43
76448;BME280;65284;51.040;13.722;2022-12-29T04:23:02;99143.19;;;10.57;63.35
76448;BME280;65284;51.040;13.722;2022-12-29T04:25:30;99147.84;;;10.55;63.60
76448;BME280;65284;51.040;13.722;2022-12-29T04:27:57;99141.41;;;10.49;63.84
76448;BME280;65284;51.040;13.722;2022-12-29T04:30:24;99144.16;;;10.41;64.16
76448;BME280;65284;51.040;13.722;2022-12-29T04:32:50;99144.06;;;10.34;64.52
76448;BME280;65284;51.040;13.722;2022-12-29T04:35:17;99139.03;;;10.39;64.43
76448;BME280;65284;51.040;13.722;2022-12-29T04:37:43;99146.28;;;10.45;64.41
76448;BME280;65284;51.040;13.722;2022-12-29T04:40:10;99139.03;;;10.39;64.43
76448;BME280;65284;51.040;13.722;2022-12-29T04:42:37;99136.94;;;10.50;64.22
76448;BME280;65284;51.040;13.722;2022-12-29T04:45:04;99152.03;;;10.49;64.27
76448;BME280;65284;51.040;13.722;2022-12-29T04:47:30;99143.19;;;10.57;64.36
76448;BME280;65284;51.040;13.722;2022-12-29T04:49:57;99145.44;;;10.45;64.70
76448;BME280;65284;51.040;13.722;2022-12-29T04:52:23;99141.88;;;10.53;64.63
76448;BME280;65284;51.040;13.722;2022-12-29T04:54:50;99151.03;;;10.35;65.12
76448;BME280;65284;51.040;13.722;2022-12-29T04:57:16;99138.22;;;10.54;64.52
76448;BME280;65284;51.040;13.722;2022-12-29T04:59:42;99142.34;;;10.41;65.08
76448;BME280;65284;51.040;13.722;2022-12-29T05:02:09;99152.22;;;10.47;65.67
76448;BME280;65284;51.040;13.722;2022-12-29T05:04:36;99150.47;;;10.40;65.70
76448;BME280;65284;51.040;13.722;2022-12-29T05:07:02;99149.59;;;10.47;65.47
76448;BME280;65284;51.040;13.722;2022-12-29T05:09:29;99150.66;;;10.38;65.77
76448;BME280;65284;51.040;13.722;2022-12-29T05:11:56;99158.53;;;10.46;65.94
76448;BME280;65284;51.040;13.722;2022-12-29T05:14:22;99157.88;;;10.30;67.04
76448;BME280;65284;51.040;13.722;2022-12-29T05:16:51;99152.06;;;10.26;67.20
76448;BME280;65284;51.040;13.722;2022-12-29T05:19:19;99160.69;;;10.28;67.21
76448;BME280;65284;51.040;13.722;2022-12-29T05:21:46;99148.09;;;10.30;67.00
76448;BME280;65284;51.040;13.722;2022-12-29T05:24:13;99145.72;;;10.35;67.00
76448;BME280;65284;51.040;13.722;2022-12-29T05:26:40;99145.88;;;10.34;67.12
76448;BME280;65284;51.040;13.722;2022-12-29T05:29:06;99137.47;;;10.30;66.83
76448;BME280;65284;51.040;13.722;2022-12-29T05:31:33;99147.09;;;10.23;67.32
76448;BME280;65284;51.040;13.722;2022-12-29T05:34:02;99165.06;;;10.21;67.54
76448;BME280;65284;51.040;13.722;2022-12-29T05:36:28;99161.38;;;10.22;67.34
76448;BME280;65284;51.040;13.722;2022-12-29T05:39:03;99166.53;;;10.23;67.28
76448;BME280;65284;51.040;13.722;2022-12-29T05:41:32;99179.28;;;10.28;66.75
76448;BME280;65284;51.040;13.722;2022-12-29T05:43:58;99173.59;;;10.31;67.13
76448;BME280;65284;51.040;13.722;2022-12-29T05:46:25;99169.31;;;10.30;67.20
76448;BME280;65284;51.040;13.722;2022-12-29T05:48:52;99176.47;;;10.30;66.88
76448;BME280;65284;51.040;13.722;2022-12-29T05:51:18;99178.75;;;10.33;66.62
76448;BME280;65284;51.040;13.722;2022-12-29T05:53:44;99164.31;;;10.35;66.70
76448;BME280;65284;51.040;13.722;2022-12-29T05:56:11;99148.63;;;10.40;66.42
76448;BME280;65284;51.040;13.722;2022-12-29T05:58:39;99163.56;;;10.41;66.38
76448;BME280;65284;51.040;13.722;2022-12-29T06:01:06;99184.44;;;10.44;66.52
76448;BME280;65284;51.040;13.722;2022-12-29T06:03:32;99175.56;;;10.52;65.88
76448;BME280;65284;51.040;13.722;2022-12-29T06:05:59;99186.25;;;10.44;66.47
76448;BME280;65284;51.040;13.722;2022-12-29T06:08:25;99194.59;;;10.56;66.09
76448;BME280;65284;51.040;13.722;2022-12-29T06:10:54;99185.28;;;10.45;66.29
76448;BME280;65284;51.040;13.722;2022-12-29T06:13:21;99185.81;;;10.40;66.56
76448;BME280;65284;51.040;13.722;2022-12-29T06:15:48;99183.44;;;10.45;66.22
76448;BME280;65284;51.040;13.722;2022-12-29T06:18:18;99185.06;;;10.46;66.47
76448;BME280;65284;51.040;13.722;2022-12-29T06:20:45;99183.78;;;10.42;66.39
76448;BME280;65284;51.040;13.722;2022-12-29T06:23:12;99176.56;;;10.36;66.80
76448;BME280;65284;51.040;13.722;2022-12-29T06:25:39;99179.16;;;10.44;66.52
76448;BME280;65284;51.040;13.722;2022-12-29T06:28:06;99175.75;;;10.51;66.29
76448;BME280;65284;51.040;13.722;2022-12-29T06:30:33;99179.03;;;10.53;66.24
76448;BME280;65284;51.040;13.722;2022-12-29T06:32:59;99166.50;;;10.46;66.43
76448;BME280;65284;51.040;13.722;2022-12-29T06:35:25;99166.84;;;10.43;66.26
76448;BME280;65284;51.040;13.722;2022-12-29T06:37:52;99166.50;;;10.46;66.41
76448;BME280;65284;51.040;13.722;2022-12-29T06:40:18;99167.34;;;10.47;65.83
76448;BME280;65284;51.040;13.722;2022-12-29T06:42:45;99165.16;;;10.51;65.86
76448;BME280;65284;51.040;13.722;2022-12-29T06:45:12;99170.47;;;10.51;65.64
76448;BME280;65284;51.040;13.722;2022-12-29T06:47:38;99163.47;;;10.50;65.44
76448;BME280;65284;51.040;13.722;2022-12-29T06:50:05;99166.13;;;10.50;65.53
76448;BME280;65284;51.040;13.722;2022-12-29T06:52:32;99167.88;;;10.42;65.34
76448;BME280;65284;51.040;13.722;2022-12-29T06:54:58;99168.97;;;10.33;65.74
76448;BME280;65284;51.040;13.722;2022-12-29T06:57:25;99165.22;;;10.42;65.33
76448;BME280;65284;51.040;13.722;2022-12-29T06:59:52;99165.28;;;10.34;65.53
76448;BME280;65284;51.040;13.722;2022-12-29T07:02:22;99178.59;;;10.26;65.39
76448;BME280;65284;51.040;13.722;2022-12-29T07:04:48;99177.31;;;10.22;65.89
76448;BME280;65284;51.040;13.722;2022-12-29T07:07:15;99174.34;;;10.17;66.17
76448;BME280;65284;51.040;13.722;2022-12-29T07:09:42;99166.50;;;10.09;66.62
76448;BME280;65284;51.040;13.722;2022-12-29T07:12:10;99169.16;;;10.09;66.59
76448;BME280;65284;51.040;13.722;2022-12-29T07:14:37;99176.38;;;10.15;66.12
76448;BME280;65284;51.040;13.722;2022-12-29T07:17:08;99173.44;;;10.10;66.44
76448;BME280;65284;51.040;13.722;2022-12-29T07:19:35;99181.69;;;10.15;66.06
76448;BME280;65284;51.040;13.722;2022-12-29T07:22:01;99179.47;;;10.03;66.73
76448;BME280;65284;51.040;13.722;2022-12-29T07:24:28;99192.31;;;10.15;66.26
76448;BME280;65284;51.040;13.722;2022-12-29T07:26:55;99187.94;;;10.22;66.27
76448;BME280;65284;51.040;13.722;2022-12-29T07:29:22;99180.03;;;10.14;66.40
76448;BME280;65284;51.040;13.722;2022-12-29T07:31:49;99202.00;;;10.22;66.04
76448;BME280;65284;51.040;13.722;2022-12-29T07:34:15;99200.00;;;10.33;65.77
76448;BME280;65284;51.040;13.722;2022-12-29T07:36:42;99187.25;;;10.28;66.05
76448;BME280;65284;51.040;13.722;2022-12-29T07:39:09;99187.56;;;10.25;66.30
76448;BME280;65284;51.040;13.722;2022-12-29T07:41:35;99182.97;;;10.42;65.81
76448;BME280;65284;51.040;13.722;2022-12-29T07:44:02;99171.91;;;10.38;66.22
76448;BME280;65284;51.040;13.722;2022-12-29T07:46:28;99178.25;;;10.29;66.55
76448;BME280;65284;51.040;13.722;2022-12-29T07:49:17;99179.13;;;10.30;66.64
76448;BME280;65284;51.040;13.722;2022-12-29T07:51:44;99172.97;;;10.29;66.70
76448;BME280;65284;51.040;13.722;2022-12-29T07:54:10;99176.19;;;10.39;66.07
76448;BME280;65284;51.040;13.722;2022-12-29T07:56:38;99177.56;;;10.35;66.55
76448;BME280;65284;51.040;13.722;2022-12-29T07:59:05;99185.19;;;10.38;65.87
76448;BME280;65284;51.040;13.722;2022-12-29T08:01:31;99175.75;;;10.51;66.04
76448;BME280;65284;51.040;13.722;2022-12-29T08:03:58;99173.09;;;10.36;66.27
76448;BME280;65284;51.040;13.722;2022-12-29T08:06:24;99176.25;;;10.31;66.68
76448;BME280;65284;51.040;13.722;2022-12-29T08:08:51;99186.16;;;10.37;66.29
76448;BME280;65284;51.040;13.722;2022-12-29T08:11:17;99191.84;;;10.49;66.08
76448;BME280;65284;51.040;13.722;2022-12-29T08:13:44;99202.38;;;10.42;66.02
76448;BME280;65284;51.040;13.722;2022-12-29T08:16:10;99208.16;;;10.46;65.18
76448;BME280;65284;51.040;13.722;2022-12-29T08:18:37;99211.38;;;10.56;65.01
76448;BME280;65284;51.040;13.722;2022-12-29T08:21:04;99208.19;;;10.61;64.94
76448;BME280;65284;51.040;13.722;2022-12-29T08:23:31;99211.84;;;10.60;65.01
76448;BME280;65284;51.040;13.722;2022-12-29T08:25:59;99218.38;;;10.72;64.55
76448;BME280;65284;51.040;13.722;2022-12-29T08:28:26;99222.28;;;10.76;64.03
76448;BME280;65284;51.040;13.722;2022-12-29T08:30:53;99226.31;;;10.72;63.86
76448;BME280;65284;51.040;13.722;2022-12-29T08:33:19;99213.78;;;10.81;63.53
76448;BME280;65284;51.040;13.722;2022-12-29T08:35:46;99217.72;;;10.70;63.56
76448;BME280;65284;51.040;13.722;2022-12-29T08:38:12;99222.66;;;10.73;63.52
76448;BME280;65284;51.040;13.722;2022-12-29T08:40:39;99219.19;;;10.73;63.53
76448;BME280;65284;51.040;13.722;2022-12-29T08:43:05;99215.72;;;10.72;63.30
76448;BME280;65284;51.040;13.722;2022-12-29T08:45:34;99223.03;;;10.70;63.56
76448;BME280;65284;51.040;13.722;2022-12-29T08:48:00;99212.13;;;10.65;63.24
76448;BME280;65284;51.040;13.722;2022-12-29T08:50:26;99220.59;;;10.83;62.96
76448;BME280;65284;51.040;13.722;2022-12-29T08:52:53;99213.16;;;10.79;63.12
76448;BME280;65284;51.040;13.722;2022-12-29T08:55:19;99212.53;;;10.77;62.64
76448;BME280;65284;51.040;13.722;2022-12-29T08:57:45;99216.63;;;10.79;62.11
76448;BME280;65284;51.040;13.722;2022-12-29T09:00:12;99214.31;;;10.76;62.34
76448;BME280;65284;51.040;13.722;2022-12-29T09:02:41;99210.56;;;10.85;62.18
76448;BME280;65284;51.040;13.722;2022-12-29T09:05:08;99202.44;;;10.72;62.00
76448;BME280;65284;51.040;13.722;2022-12-29T09:07:35;99202.34;;;10.80;62.17
76448;BME280;65284;51.040;13.722;2022-12-29T09:10:02;99210.56;;;10.85;61.77
76448;BME280;65284;51.040;13.722;2022-12-29T09:12:28;99194.38;;;10.80;62.27
76448;BME280;65284;51.040;13.722;2022-12-29T09:15:01;99192.63;;;10.87;61.90
76448;BME280;65284;51.040;13.722;2022-12-29T09:17:28;99196.66;;;10.83;61.81
76448;BME280;65284;51.040;13.722;2022-12-29T09:20:15;99198.31;;;10.84;62.23
76448;BME280;65284;51.040;13.722;2022-12-29T09:22:42;99189.31;;;10.85;61.96
76448;BME280;65284;51.040;13.722;2022-12-29T09:25:10;99180.38;;;10.86;62.20
76448;BME280;65284;51.040;13.722;2022-12-29T09:27:37;99182.94;;;10.95;61.88
76448;BME280;65284;51.040;13.722;2022-12-29T09:30:08;99189.06;;;10.95;62.01
76448;BME280;65284;51.040;13.722;2022-12-29T09:32:35;99187.16;;;10.89;62.12
76448;BME280;65284;51.040;13.722;2022-12-29T09:35:09;99195.94;;;10.89;62.18
76448;BME280;65284;51.040;13.722;2022-12-29T09:37:36;99208.19;;;10.90;62.16
76448;BME280;65284;51.040;13.722;2022-12-29T09:40:04;99192.25;;;10.90;62.30
76448;BME280;65284;51.040;13.722;2022-12-29T09:42:45;99198.22;;;10.92;61.87
76448;BME280;65284;51.040;13.722;2022-12-29T09:45:21;99194.19;;;10.97;61.79
76448;BME280;65284;51.040;13.722;2022-12-29T09:47:53;99207.47;;;10.97;61.91
76448;BME280;65284;51.040;13.722;2022-12-29T09:50:25;99212.63;;;10.98;61.95
76448;BME280;65284;51.040;13.722;2022-12-29T09:53:00;99196.38;;;11.08;61.47
76448;BME280;65284;51.040;13.722;2022-12-29T09:55:35;99202.53;;;11.08;61.44
76448;BME280;65284;51.040;13.722;2022-12-29T09:58:06;99199.03;;;11.08;61.55
76448;BME280;65284;51.040;13.722;2022-12-29T10:00:43;99198.31;;;11.14;61.00
76448;BME280;65284;51.040;13.722;2022-12-29T10:03:22;99197.19;;;11.23;60.72
76448;BME280;65284;51.040;13.722;2022-12-29T10:06:11;99193.56;;;11.24;60.50
76448;BME280;65284;51.040;13.722;2022-12-29T10:08:52;99185.44;;;11.32;60.87
76448;BME280;65284;51.040;13.722;2022-12-29T10:22:09;99199.94;;;11.45;59.42
76448;BME280;65284;51.040;13.722;2022-12-29T10:24:39;99192.13;;;11.43;58.70
76448;BME280;65284;51.040;13.722;2022-12-29T10:27:10;99201.56;;;11.46;58.95
76448;BME280;65284;51.040;13.722;2022-12-29T10:29:42;99185.00;;;11.65;58.35
76448;BME280;65284;51.040;13.722;2022-12-29T10:32:32;99185.75;;;11.59;58.63
76448;BME280;65284;51.040;13.722;2022-12-29T10:35:05;99172.09;;;11.62;58.70
76448;BME280;65284;51.040;13.722;2022-12-29T10:37:45;99181.84;;;11.76;58.26
76448;BME280;65284;51.040;13.722;2022-12-29T10:40:24;99194.97;;;11.78;58.29
76448;BME280;65284;51.040;13.722;2022-12-29T10:42:54;99164.91;;;11.77;58.13
76448;BME280;65284;51.040;13.722;2022-12-29T10:45:23;99172.13;;;11.83;58.20
76448;BME280;65284;51.040;13.722;2022-12-29T10:48:09;99159.09;;;11.89;57.81
76448;BME280;65284;51.040;13.722;2022-12-29T10:50:39;99157.31;;;11.96;58.18
76448;BME280;65284;51.040;13.722;2022-12-29T10:53:17;99155.66;;;11.95;58.09
76448;BME280;65284;51.040;13.722;2022-12-29T10:55:47;99138.69;;;11.96;58.40
76448;BME280;65284;51.040;13.722;2022-12-29T10:58:14;99146.47;;;11.97;58.34
76448;BME280;65284;51.040;13.722;2022-12-29T11:00:42;99140.97;;;11.99;58.34
76448;BME280;65284;51.040;13.722;2022-12-29T11:03:38;99144.03;;;11.96;58.37
76448;BME280;65284;51.040;13.722;2022-12-29T11:06:14;99155.09;;;11.99;58.68
76448;BME280;65284;51.040;13.722;2022-12-29T11:08:51;99157.69;;;12.14;58.18
76448;BME280;65284;51.040;13.722;2022-12-29T11:11:27;99149.97;;;12.19;58.21
76448;BME280;65284;51.040;13.722;2022-12-29T11:14:47;99147.91;;;12.21;58.15
76448;BME280;65284;51.040;13.722;2022-12-29T11:16:59;99150.00;;;12.26;57.93
76448;BME280;65284;51.040;13.722;2022-12-29T11:19:29;99151.72;;;12.34;57.91
76448;BME280;65284;51.040;13.722;2022-12-29T11:22:22;99147.09;;;12.21;58.28
76448;BME280;65284;51.040;13.722;2022-12-29T11:24:51;99144.34;;;12.36;57.88
76448;BME280;65284;51.040;13.722;2022-12-29T11:27:21;99135.63;;;12.20;58.34
76448;BME280;65284;51.040;13.722;2022-12-29T11:29:53;99144.03;;;12.24;58.45
76448;BME280;65284;51.040;13.722;2022-12-29T11:32:25;99149.19;;;12.25;58.17
76448;BME280;65284;51.040;13.722;2022-12-29T11:34:55;99144.34;;;12.36;57.78
76448;BME280;65284;51.040;13.722;2022-12-29T11:37:38;99143.50;;;12.35;58.09
76448;BME280;65284;51.040;13.722;2022-12-29T11:40:06;99136.63;;;12.47;57.77
76448;BME280;65284;51.040;13.722;2022-12-29T11:42:50;99141.97;;;12.47;57.90
76448;BME280;65284;51.040;13.722;2022-12-29T11:45:23;99103.50;;;12.57;57.88
76448;BME280;65284;51.040;13.722;2022-12-29T11:47:56;99130.63;;;12.67;57.34
76448;BME280;65284;51.040;13.722;2022-12-29T11:50:26;99126.94;;;12.68;57.43
76448;BME280;65284;51.040;13.722;2022-12-29T11:53:14;99137.56;;;12.61;57.87
76448;BME280;65284;51.040;13.722;2022-12-29T11:55:59;99136.38;;;12.70;57.55
76448;BME280;65284;51.040;13.722;2022-12-29T11:58:31;99132.69;;;12.71;57.41
76448;BME280;65284;51.040;13.722;2022-12-29T12:01:12;99128.19;;;12.72;57.51
76448;BME280;65284;51.040;13.722;2022-12-29T12:03:46;99122.19;;;12.63;57.79
76448;BME280;65284;51.040;13.722;2022-12-29T12:06:16;99129.94;;;12.58;57.75
76448;BME280;65284;51.040;13.722;2022-12-29T12:08:53;99131.38;;;12.54;57.92
76448;BME280;65284;51.040;13.722;2022-12-29T12:11:25;99127.03;;;12.53;57.71
76448;BME280;65284;51.040;13.722;2022-12-29T12:14:23;99128.84;;;12.46;57.90
76448;BME280;65284;51.040;13.722;2022-12-29T12:16:50;99127.03;;;12.53;57.89
76448;BME280;65284;51.040;13.722;2022-12-29T12:19:32;99126.19;;;12.46;57.71
76448;BME280;65284;51.040;13.722;2022-12-29T12:22:31;99121.72;;;12.53;57.58
76448;BME280;65284;51.040;13.722;2022-12-29T12:25:02;99119.06;;;12.53;57.67
76448;BME280;65284;51.040;13.722;2022-12-29T12:27:36;99124.81;;;12.57;57.46
76448;BME280;65284;51.040;13.722;2022-12-29T12:30:19;99123.00;;;12.57;57.74
76448;BME280;65284;51.040;13.722;2022-12-29T12:35:44;99117.66;;;12.57;57.48
76448;BME280;65284;51.040;13.722;2022-12-29T12:41:07;99106.75;;;12.52;57.38
76448;BME280;65284;51.040;13.722;2022-12-29T12:43:41;99112.09;;;12.52;57.54
76448;BME280;65284;51.040;13.722;2022-12-29T12:49:36;99113.38;;;12.63;56.62
76448;BME280;65284;51.040;13.722;2022-12-29T12:58:01;99092.00;;;12.49;57.04
76448;BME280;65284;51.040;13.722;2022-12-29T13:00:37;99089.59;;;12.61;56.82
76448;BME280;65284;51.040;13.722;2022-12-29T13:03:17;99099.47;;;12.67;56.50
76448;BME280;65284;51.040;13.722;2022-12-29T13:06:07;99089.38;;;12.63;56.41
76448;BME280;65284;51.040;13.722;2022-12-29T13:17:32;99088.03;;;12.73;56.32
76448;BME280;65284;51.040;13.722;2022-12-29T13:20:06;99091.31;;;12.75;56.21
76448;BME280;65284;51.040;13.722;2022-12-29T13:22:47;99103.47;;;12.85;55.97
76448;BME280;65284;51.040;13.722;2022-12-29T13:30:29;99098.53;;;12.82;56.36
76448;BME280;65284;51.040;13.722;2022-12-29T13:33:26;99102.97;;;12.74;56.07
76448;BME280;65284;51.040;13.722;2022-12-29T13:36:02;99106.44;;;12.68;56.32
76448;BME280;65284;51.040;13.722;2022-12-29T13:38:34;99106.03;;;12.71;56.39
76448;BME280;65284;51.040;13.722;2022-12-29T13:41:07;99105.63;;;12.68;56.45
76448;BME280;65284;51.040;13.722;2022-12-29T13:43:37;99114.63;;;12.67;56.22
76448;BME280;65284;51.040;13.722;2022-12-29T13:46:12;99109.56;;;12.72;56.16
76448;BME280;65284;51.040;13.722;2022-12-29T13:48:47;99111.38;;;12.71;56.14
76448;BME280;65284;51.040;13.722;2022-12-29T13:51:17;99115.06;;;12.70;56.27
76448;BME280;65284;51.040;13.722;2022-12-29T13:54:13;99112.25;;;12.79;55.97
76448;BME280;65284;51.040;13.722;2022-12-29T13:56:49;99115.44;;;12.67;56.12
76448;BME280;65284;51.040;13.722;2022-12-29T14:00:25;99124.88;;;12.63;56.42
76448;BME280;65284;51.040;13.722;2022-12-29T14:07:43;99119.47;;;12.57;56.78
76448;BME280;65284;51.040;13.722;2022-12-29T14:10:28;99116.00;;;12.56;56.67
76448;BME280;65284;51.040;13.722;2022-12-29T14:13:12;99121.06;;;12.51;57.09
76448;BME280;65284;51.040;13.722;2022-12-29T14:15:40;99127.91;;;12.60;56.56
76448;BME280;65284;51.040;13.722;2022-12-29T14:21:18;99138.78;;;12.65;56.42
76448;BME280;65284;51.040;13.722;2022-12-29T14:23:51;99130.59;;;12.60;56.69
76448;BME280;65284;51.040;13.722;2022-12-29T14:28:55;99135.66;;;12.55;56.68
76448;BME280;65284;51.040;13.722;2022-12-29T14:36:36;99127.69;;;12.55;56.68